Estación Meteorológica Peña el Pijo (Robertgarden) [ 02/03/23 04:03:32 CET ]

Fecha Hora Presion(HPa) Temp (°C) Humedad % Rocio (°C) Viento ( m/s) Direccion Lluvia 1Hora(mm) Lluvia 24H(mm) LLuvia Total(mm)
2010-Jul-14 01:01:14 1010.500 19.4 47 7.8         130.53
2010-Jul-14 02:01:16 1009.900 19.3 46 7.3         130.53
2010-Jul-14 03:03:21 1009.600 18.6 48 7.3         130.53
2010-Jul-14 04:01:12 1009.200 17.8 49 6.9         130.53
2010-Jul-14 05:01:14 1009.000 15.9 51 5.8         130.53
2010-Jul-14 06:01:12 1008.700 14.5 56 5.8         130.53
2010-Jul-14 07:01:19 1009.000 13.6 57 5.2         130.53
2010-Jul-14 08:01:17 1009.300 15.6 59 7.6         130.53
2010-Jul-14 09:01:13 1009.500 22.9 50 11.9         130.53
2010-Jul-14 10:01:15 1009.500 27.9 31 9.2         130.53
2010-Jul-14 11:01:17 1009.500 30.7 27 9.4         130.53
2010-Jul-14 12:01:14 1009.800 32.6 27 11.0 0.4 SE     130.53
2010-Jul-14 13:01:14 1009.700 33.1 25 10.2         130.53
2010-Jul-14 14:01:18 1009.600 34.8 21 9.2         130.53
2010-Jul-14 15:01:13 1009.500 34.9 23 10.5         130.53
2010-Jul-14 16:01:14 1009.500 34.8 23 10.4         130.53
2010-Jul-14 17:01:14 1009.200 35.3 18 7.0         130.53
2010-Jul-14 18:01:12 1009.500 33.8 19 6.8         130.53
2010-Jul-14 19:01:16 1010.000 33.2 19 6.3         130.53
2010-Jul-14 20:01:13 1010.200 31.5 19 4.9         130.53
2010-Jul-14 21:01:11 1010.500 27.8 22 4.0         130.53
2010-Jul-14 22:01:13 1011.100 24.3 30 5.7         130.53
2010-Jul-14 23:01:13 1011.900 20.5 41 6.8         130.53

Temperatura Máxima:35°    Temperatura Mínima:13°
Presión Máxima:1011.900 Hpa    Presión Mínima:1008.700 Hpa


Volver